FDB870 OEDF-OMDB
Flight info
| Callsign | FDB870 |
|---|---|
| Flight time | 1h 1m |
| Altitude | 9000 |
| Route | ROTEL N572 DAVRI P559 VUTEB |
| Aircraft | B38M/M-SDE1FGHILORVWXY/HB1 |
Departure
| Time | 2026-04-23 13:35 |
|---|---|
| Airport | King Fahd International Airport (OEDF) |
Arrival
| Time | 2026-04-23 14:37 |
|---|---|
| Airport | Dubai International Airport (OMDB) |
| Time | Latitude | Longitude | Altitude | Speed | Heading |
|---|---|---|---|---|---|
| 2026-04-23 13:20 | 26.46885 | 49.79492 | 87 ft | 0 kts | 75° |
| 2026-04-23 13:28 | 26.46884 | 49.79490 | 87 ft | 2 kts | 75° |
| 2026-04-23 13:28 | 26.46878 | 49.79463 | 91 ft | 4 kts | 80° |
| 2026-04-23 13:28 | 26.46876 | 49.79433 | 90 ft | 4 kts | 95° |
| 2026-04-23 13:28 | 26.46884 | 49.79408 | 92 ft | 4 kts | 141° |
| 2026-04-23 13:29 | 26.46888 | 49.79404 | 90 ft | 3 kts | 154° |
| 2026-04-23 13:29 | 26.46890 | 49.79403 | 90 ft | 2 kts | 157° |
| 2026-04-23 13:31 | 26.46890 | 49.79404 | 90 ft | 1 kts | 157° |
| 2026-04-23 13:31 | 26.46844 | 49.79419 | 87 ft | 13 kts | 165° |
| 2026-04-23 13:31 | 26.46740 | 49.79451 | 89 ft | 17 kts | 165° |
| 2026-04-23 13:31 | 26.46620 | 49.79483 | 88 ft | 18 kts | 173° |
| 2026-04-23 13:32 | 26.46491 | 49.79480 | 87 ft | 19 kts | 212° |
| 2026-04-23 13:32 | 26.46437 | 49.79344 | 90 ft | 20 kts | 254° |
| 2026-04-23 13:32 | 26.46353 | 49.79239 | 87 ft | 20 kts | 177° |
| 2026-04-23 13:32 | 26.46211 | 49.79280 | 90 ft | 22 kts | 163° |
| 2026-04-23 13:33 | 26.46060 | 49.79327 | 89 ft | 23 kts | 164° |
| 2026-04-23 13:33 | 26.45900 | 49.79377 | 90 ft | 25 kts | 164° |
| 2026-04-23 13:33 | 26.45731 | 49.79430 | 91 ft | 26 kts | 164° |
| 2026-04-23 13:33 | 26.45553 | 49.79487 | 90 ft | 27 kts | 164° |
| 2026-04-23 13:34 | 26.45470 | 49.79466 | 91 ft | 6 kts | 230° |
| 2026-04-23 13:34 | 26.45450 | 49.79421 | 90 ft | 7 kts | 256° |
| 2026-04-23 13:34 | 26.45430 | 49.79345 | 88 ft | 16 kts | 255° |
| 2026-04-23 13:34 | 26.45461 | 49.79200 | 87 ft | 23 kts | 322° |
| 2026-04-23 13:35 | 26.45679 | 49.79119 | 91 ft | 63 kts | 345° |
| 2026-04-23 13:35 | 26.46369 | 49.78901 | 91 ft | 140 kts | 344° |
| 2026-04-23 13:35 | 26.47465 | 49.78567 | 431 ft | 176 kts | 344° |
| 2026-04-23 13:35 | 26.48647 | 49.78188 | 1586 ft | 172 kts | 349° |
| 2026-04-23 13:36 | 26.49809 | 49.77861 | 2459 ft | 181 kts | 348° |
| 2026-04-23 13:36 | 26.51118 | 49.77516 | 2610 ft | 204 kts | 347° |
| 2026-04-23 13:36 | 26.52539 | 49.77107 | 2721 ft | 218 kts | 347° |
| 2026-04-23 13:36 | 26.54065 | 49.76639 | 2885 ft | 238 kts | 347° |
| 2026-04-23 13:37 | 26.55708 | 49.76139 | 2938 ft | 248 kts | 346° |
| 2026-04-23 13:37 | 26.57389 | 49.75633 | 3068 ft | 253 kts | 346° |
| 2026-04-23 13:37 | 26.59097 | 49.75124 | 3209 ft | 253 kts | 346° |
| 2026-04-23 13:37 | 26.60805 | 49.74616 | 3347 ft | 255 kts | 346° |
| 2026-04-23 13:38 | 26.62521 | 49.74104 | 4015 ft | 253 kts | 344° |
| 2026-04-23 13:38 | 26.64240 | 49.73591 | 4976 ft | 262 kts | 342° |
| 2026-04-23 13:38 | 26.66041 | 49.73049 | 5783 ft | 273 kts | 342° |
| 2026-04-23 13:38 | 26.67897 | 49.72493 | 6698 ft | 278 kts | 341° |
| 2026-04-23 13:39 | 26.69778 | 49.71928 | 7639 ft | 282 kts | 340° |
| 2026-04-23 13:39 | 26.71694 | 49.71354 | 8558 ft | 288 kts | 340° |
| 2026-04-23 13:39 | 26.73637 | 49.70772 | 9598 ft | 290 kts | 339° |
| 2026-04-23 13:39 | 26.75600 | 49.70182 | 10445 ft | 298 kts | 339° |
| 2026-04-23 13:40 | 26.77672 | 49.69559 | 10875 ft | 318 kts | 339° |
| 2026-04-23 13:40 | 26.79849 | 49.68905 | 11250 ft | 339 kts | 339° |
| 2026-04-23 13:40 | 26.82216 | 49.68194 | 11661 ft | 356 kts | 339° |
| 2026-04-23 13:40 | 26.84637 | 49.67467 | 12282 ft | 362 kts | 339° |
| 2026-04-23 13:41 | 26.87049 | 49.66742 | 13009 ft | 366 kts | 339° |
| 2026-04-23 13:41 | 26.89558 | 49.65988 | 13722 ft | 371 kts | 339° |
| 2026-04-23 13:41 | 26.92031 | 49.65244 | 14347 ft | 374 kts | 339° |
| 2026-04-23 13:41 | 26.94559 | 49.64484 | 15006 ft | 377 kts | 339° |
| 2026-04-23 13:42 | 26.97097 | 49.63720 | 15684 ft | 379 kts | 339° |
| 2026-04-23 13:42 | 26.99654 | 49.62949 | 16260 ft | 383 kts | 339° |
| 2026-04-23 13:42 | 27.02242 | 49.62169 | 16842 ft | 387 kts | 339° |
| 2026-04-23 13:42 | 27.04941 | 49.61698 | 17412 ft | 402 kts | 356° |
| 2026-04-23 13:43 | 27.07715 | 49.62350 | 18045 ft | 419 kts | 18° |
| 2026-04-23 13:43 | 27.10190 | 49.64159 | 18549 ft | 432 kts | 40° |
| 2026-04-23 13:43 | 27.12049 | 49.66814 | 19047 ft | 441 kts | 60° |
| 2026-04-23 13:43 | 27.13047 | 49.70078 | 19533 ft | 444 kts | 83° |
| 2026-04-23 13:44 | 27.12962 | 49.73523 | 19983 ft | 443 kts | 106° |
| 2026-04-23 13:44 | 27.11808 | 49.76685 | 20418 ft | 435 kts | 129° |
| 2026-04-23 13:44 | 27.09827 | 49.79191 | 20882 ft | 429 kts | 141° |
| 2026-04-23 13:44 | 27.07790 | 49.81696 | 21247 ft | 438 kts | 136° |
| 2026-04-23 13:45 | 27.05809 | 49.84300 | 21772 ft | 440 kts | 135° |
| 2026-04-23 13:45 | 27.03831 | 49.86941 | 22211 ft | 444 kts | 135° |
| 2026-04-23 13:45 | 27.01846 | 49.89614 | 22667 ft | 447 kts | 134° |
| 2026-04-23 13:45 | 26.99845 | 49.92311 | 23045 ft | 452 kts | 134° |
| 2026-04-23 13:46 | 26.97835 | 49.95040 | 23487 ft | 455 kts | 134° |
| 2026-04-23 13:46 | 26.95805 | 49.97784 | 23850 ft | 458 kts | 134° |
| 2026-04-23 13:46 | 26.93768 | 50.00540 | 24211 ft | 461 kts | 134° |
| 2026-04-23 13:46 | 26.91712 | 50.03312 | 24592 ft | 463 kts | 134° |
| 2026-04-23 13:47 | 26.89648 | 50.06095 | 24960 ft | 466 kts | 134° |
| 2026-04-23 13:47 | 26.87571 | 50.08893 | 25328 ft | 468 kts | 134° |
| 2026-04-23 13:47 | 26.85482 | 50.11705 | 25690 ft | 471 kts | 134° |
| 2026-04-23 13:47 | 26.83380 | 50.14531 | 26017 ft | 474 kts | 134° |
| 2026-04-23 13:48 | 26.81264 | 50.17376 | 26355 ft | 477 kts | 134° |
| 2026-04-23 13:48 | 26.79137 | 50.20230 | 26702 ft | 479 kts | 134° |
| 2026-04-23 13:48 | 26.77001 | 50.23098 | 27079 ft | 480 kts | 134° |
| 2026-04-23 13:48 | 26.74858 | 50.25968 | 27407 ft | 482 kts | 134° |
| 2026-04-23 13:49 | 26.72699 | 50.28858 | 27735 ft | 485 kts | 134° |
| 2026-04-23 13:49 | 26.70775 | 50.31981 | 28061 ft | 493 kts | 120° |
| 2026-04-23 13:49 | 26.69529 | 50.35568 | 28394 ft | 499 kts | 105° |
| 2026-04-23 13:49 | 26.68981 | 50.39416 | 28608 ft | 505 kts | 92° |
| 2026-04-23 13:50 | 26.69223 | 50.43280 | 28956 ft | 506 kts | 78° |
| 2026-04-23 13:50 | 26.70071 | 50.47111 | 29207 ft | 509 kts | 74° |
| 2026-04-23 13:50 | 26.71000 | 50.50947 | 29471 ft | 512 kts | 73° |
| 2026-04-23 13:50 | 26.71967 | 50.54774 | 29803 ft | 513 kts | 73° |
| 2026-04-23 13:51 | 26.72960 | 50.58622 | 30057 ft | 516 kts | 73° |
| 2026-04-23 13:51 | 26.73967 | 50.62486 | 30318 ft | 518 kts | 72° |
| 2026-04-23 13:51 | 26.74981 | 50.66366 | 30553 ft | 520 kts | 73° |
| 2026-04-23 13:51 | 26.75998 | 50.70253 | 30806 ft | 522 kts | 72° |
| 2026-04-23 13:52 | 26.77014 | 50.74147 | 30917 ft | 524 kts | 72° |
| 2026-04-23 13:52 | 26.79055 | 50.81975 | 30894 ft | 522 kts | 72° |
| 2026-04-23 13:53 | 26.81075 | 50.89785 | 30894 ft | 522 kts | 75° |
| 2026-04-23 13:53 | 26.81609 | 50.93790 | 30883 ft | 520 kts | 89° |
| 2026-04-23 13:53 | 26.81385 | 50.97807 | 30878 ft | 518 kts | 103° |
| 2026-04-23 13:53 | 26.80336 | 51.01627 | 30903 ft | 513 kts | 115° |
| 2026-04-23 13:54 | 26.78995 | 51.05342 | 30877 ft | 516 kts | 115° |
| 2026-04-23 13:54 | 26.76491 | 51.12868 | 30888 ft | 516 kts | 111° |
| 2026-04-23 13:55 | 26.74082 | 51.20426 | 30869 ft | 516 kts | 112° |
| 2026-04-23 13:55 | 26.71636 | 51.27964 | 30877 ft | 521 kts | 112° |
| 2026-04-23 13:56 | 26.69161 | 51.35575 | 30877 ft | 520 kts | 112° |
| 2026-04-23 13:56 | 26.66691 | 51.43159 | 30876 ft | 518 kts | 112° |
| 2026-04-23 13:57 | 26.64258 | 51.50744 | 30873 ft | 519 kts | 112° |
| 2026-04-23 13:57 | 26.61814 | 51.58334 | 30868 ft | 519 kts | 112° |
| 2026-04-23 13:58 | 26.59366 | 51.65926 | 30874 ft | 520 kts | 112° |
| 2026-04-23 13:58 | 26.56911 | 51.73523 | 30877 ft | 520 kts | 112° |
| 2026-04-23 13:59 | 26.54455 | 51.81119 | 30872 ft | 519 kts | 112° |
| 2026-04-23 13:59 | 26.51987 | 51.88672 | 30880 ft | 517 kts | 112° |
| 2026-04-23 14:00 | 26.49902 | 51.94950 | 30873 ft | 518 kts | 112° |
| 2026-04-23 14:00 | 26.46957 | 52.03815 | 30884 ft | 523 kts | 112° |
| 2026-04-23 14:01 | 26.44433 | 52.11401 | 30882 ft | 519 kts | 112° |
| 2026-04-23 14:01 | 26.41912 | 52.18942 | 30884 ft | 519 kts | 112° |
| 2026-04-23 14:02 | 26.39383 | 52.26492 | 30884 ft | 519 kts | 112° |
| 2026-04-23 14:02 | 26.36871 | 52.33977 | 30869 ft | 519 kts | 112° |
| 2026-04-23 14:03 | 26.34153 | 52.41440 | 30881 ft | 520 kts | 115° |
| 2026-04-23 14:03 | 26.31316 | 52.48866 | 30875 ft | 520 kts | 115° |
| 2026-04-23 14:04 | 26.28490 | 52.56289 | 30877 ft | 520 kts | 115° |
| 2026-04-23 14:04 | 26.25665 | 52.63698 | 30871 ft | 519 kts | 115° |
| 2026-04-23 14:05 | 26.22836 | 52.71101 | 30865 ft | 521 kts | 115° |
| 2026-04-23 14:05 | 26.19984 | 52.78548 | 30864 ft | 522 kts | 115° |
| 2026-04-23 14:06 | 26.17138 | 52.85966 | 30865 ft | 521 kts | 115° |
| 2026-04-23 14:06 | 26.14288 | 52.93381 | 30861 ft | 521 kts | 115° |
| 2026-04-23 14:07 | 26.11435 | 53.00793 | 30864 ft | 521 kts | 115° |
| 2026-04-23 14:07 | 26.07311 | 53.11957 | 30869 ft | 522 kts | 114° |
| 2026-04-23 14:08 | 26.04563 | 53.19413 | 30866 ft | 521 kts | 114° |
| 2026-04-23 14:08 | 26.02275 | 53.25609 | 30857 ft | 521 kts | 114° |
| 2026-04-23 14:09 | 25.99083 | 53.34237 | 30860 ft | 518 kts | 114° |
| 2026-04-23 14:09 | 25.96340 | 53.41635 | 30855 ft | 518 kts | 114° |
| 2026-04-23 14:10 | 25.94040 | 53.47829 | 30855 ft | 518 kts | 113° |
| 2026-04-23 14:10 | 25.91454 | 53.55302 | 30851 ft | 518 kts | 112° |
| 2026-04-23 14:11 | 25.88863 | 53.62773 | 30846 ft | 518 kts | 112° |
| 2026-04-23 14:11 | 25.86269 | 53.70234 | 30852 ft | 518 kts | 112° |
| 2026-04-23 14:12 | 25.83683 | 53.77696 | 30849 ft | 516 kts | 112° |
| 2026-04-23 14:12 | 25.81092 | 53.85156 | 30840 ft | 521 kts | 112° |
| 2026-04-23 14:13 | 25.78498 | 53.92608 | 30842 ft | 521 kts | 112° |
| 2026-04-23 14:13 | 25.75907 | 54.00107 | 30836 ft | 521 kts | 110° |
| 2026-04-23 14:14 | 25.73589 | 54.07682 | 30826 ft | 517 kts | 110° |
| 2026-04-23 14:14 | 25.71254 | 54.15220 | 30828 ft | 517 kts | 109° |
| 2026-04-23 14:15 | 25.68913 | 54.22756 | 30816 ft | 518 kts | 109° |
| 2026-04-23 14:15 | 25.67736 | 54.26535 | 30558 ft | 519 kts | 110° |
| 2026-04-23 14:15 | 25.66552 | 54.30337 | 29287 ft | 527 kts | 110° |
| 2026-04-23 14:16 | 25.65363 | 54.34168 | 28552 ft | 523 kts | 110° |
| 2026-04-23 14:16 | 25.64187 | 54.37964 | 27812 ft | 519 kts | 110° |
| 2026-04-23 14:16 | 25.63011 | 54.41752 | 26917 ft | 520 kts | 110° |
| 2026-04-23 14:16 | 25.61836 | 54.45536 | 25990 ft | 521 kts | 110° |
| 2026-04-23 14:17 | 25.60655 | 54.49337 | 25155 ft | 520 kts | 110° |
| 2026-04-23 14:17 | 25.59481 | 54.53111 | 24544 ft | 514 kts | 110° |
| 2026-04-23 14:17 | 25.58423 | 54.56866 | 23984 ft | 506 kts | 103° |
| 2026-04-23 14:17 | 25.58099 | 54.60680 | 23241 ft | 493 kts | 87° |
| 2026-04-23 14:18 | 25.58507 | 54.64402 | 22388 ft | 481 kts | 82° |
| 2026-04-23 14:18 | 25.58951 | 54.68034 | 21528 ft | 471 kts | 82° |
| 2026-04-23 14:18 | 25.59393 | 54.71596 | 20656 ft | 463 kts | 82° |
| 2026-04-23 14:18 | 25.59834 | 54.75106 | 19820 ft | 456 kts | 82° |
| 2026-04-23 14:19 | 25.60269 | 54.78556 | 19013 ft | 449 kts | 82° |
| 2026-04-23 14:19 | 25.60697 | 54.81965 | 18137 ft | 444 kts | 83° |
| 2026-04-23 14:19 | 25.60994 | 54.85343 | 17173 ft | 437 kts | 93° |
| 2026-04-23 14:19 | 25.60505 | 54.88610 | 16310 ft | 425 kts | 112° |
| 2026-04-23 14:20 | 25.59309 | 54.91551 | 15527 ft | 414 kts | 118° |
| 2026-04-23 14:20 | 25.58138 | 54.94450 | 14685 ft | 410 kts | 117° |
| 2026-04-23 14:20 | 25.57003 | 54.97312 | 13896 ft | 404 kts | 117° |
| 2026-04-23 14:20 | 25.55888 | 55.00146 | 13087 ft | 398 kts | 117° |
| 2026-04-23 14:21 | 25.54793 | 55.02933 | 12331 ft | 390 kts | 118° |
| 2026-04-23 14:21 | 25.53492 | 55.05515 | 12288 ft | 385 kts | 124° |
| 2026-04-23 14:21 | 25.52142 | 55.08086 | 12056 ft | 388 kts | 123° |
| 2026-04-23 14:21 | 25.50801 | 55.10671 | 11806 ft | 385 kts | 123° |
| 2026-04-23 14:22 | 25.49486 | 55.13223 | 10988 ft | 382 kts | 123° |
| 2026-04-23 14:22 | 25.48178 | 55.15769 | 10273 ft | 377 kts | 123° |
| 2026-04-23 14:22 | 25.46898 | 55.18261 | 9642 ft | 369 kts | 122° |
| 2026-04-23 14:22 | 25.45531 | 55.20626 | 8900 ft | 360 kts | 133° |
| 2026-04-23 14:23 | 25.43857 | 55.22639 | 8276 ft | 352 kts | 135° |
| 2026-04-23 14:23 | 25.42252 | 55.24582 | 8140 ft | 329 kts | 135° |
| 2026-04-23 14:23 | 25.40788 | 55.26366 | 8112 ft | 306 kts | 135° |
| 2026-04-23 14:23 | 25.39410 | 55.28051 | 8101 ft | 284 kts | 135° |
| 2026-04-23 14:24 | 25.38137 | 55.29612 | 8091 ft | 263 kts | 136° |
| 2026-04-23 14:24 | 25.36952 | 55.31064 | 8071 ft | 249 kts | 136° |
| 2026-04-23 14:24 | 25.35767 | 55.32445 | 8103 ft | 246 kts | 146° |
| 2026-04-23 14:24 | 25.34329 | 55.33407 | 7967 ft | 239 kts | 156° |
| 2026-04-23 14:25 | 25.32864 | 55.34276 | 7628 ft | 240 kts | 156° |
| 2026-04-23 14:25 | 25.31392 | 55.35146 | 7341 ft | 239 kts | 156° |
| 2026-04-23 14:25 | 25.29924 | 55.36010 | 7033 ft | 238 kts | 155° |
| 2026-04-23 14:25 | 25.28465 | 55.36867 | 6742 ft | 237 kts | 155° |
| 2026-04-23 14:26 | 25.27011 | 55.37719 | 6469 ft | 236 kts | 155° |
| 2026-04-23 14:26 | 25.25560 | 55.38570 | 6195 ft | 235 kts | 155° |
| 2026-04-23 14:26 | 25.24123 | 55.39412 | 6027 ft | 235 kts | 155° |
| 2026-04-23 14:26 | 25.22681 | 55.40256 | 5950 ft | 231 kts | 155° |
| 2026-04-23 14:27 | 25.21287 | 55.41072 | 5841 ft | 221 kts | 155° |
| 2026-04-23 14:27 | 25.19949 | 55.41855 | 5736 ft | 215 kts | 156° |
| 2026-04-23 14:27 | 25.18636 | 55.42623 | 5711 ft | 213 kts | 156° |
| 2026-04-23 14:27 | 25.17341 | 55.43380 | 5365 ft | 211 kts | 156° |
| 2026-04-23 14:28 | 25.16039 | 55.44141 | 4925 ft | 212 kts | 156° |
| 2026-04-23 14:28 | 25.14735 | 55.44903 | 4489 ft | 212 kts | 156° |
| 2026-04-23 14:28 | 25.13434 | 55.45665 | 4061 ft | 211 kts | 155° |
| 2026-04-23 14:28 | 25.12137 | 55.46426 | 3627 ft | 212 kts | 153° |
| 2026-04-23 14:29 | 25.11055 | 55.47532 | 3243 ft | 213 kts | 126° |
| 2026-04-23 14:29 | 25.10240 | 55.48881 | 3107 ft | 214 kts | 124° |
| 2026-04-23 14:29 | 25.09425 | 55.50267 | 3026 ft | 215 kts | 123° |
| 2026-04-23 14:29 | 25.08626 | 55.51652 | 2997 ft | 214 kts | 123° |
| 2026-04-23 14:30 | 25.07828 | 55.53053 | 3003 ft | 217 kts | 124° |
| 2026-04-23 14:30 | 25.07035 | 55.54469 | 2993 ft | 215 kts | 120° |
| 2026-04-23 14:30 | 25.06698 | 55.56052 | 2575 ft | 215 kts | 84° |
| 2026-04-23 14:30 | 25.07222 | 55.57535 | 2214 ft | 206 kts | 47° |
| 2026-04-23 14:31 | 25.08381 | 55.58338 | 2005 ft | 196 kts | 8° |
| 2026-04-23 14:31 | 25.09691 | 55.58181 | 1963 ft | 192 kts | 333° |
| 2026-04-23 14:31 | 25.10820 | 55.57378 | 2045 ft | 194 kts | 323° |
| 2026-04-23 14:31 | 25.11909 | 55.56489 | 2034 ft | 194 kts | 322° |
| 2026-04-23 14:32 | 25.12981 | 55.55602 | 2003 ft | 192 kts | 322° |
| 2026-04-23 14:32 | 25.14035 | 55.54718 | 1975 ft | 190 kts | 322° |
| 2026-04-23 14:32 | 25.15089 | 55.53827 | 1976 ft | 193 kts | 322° |
| 2026-04-23 14:32 | 25.16159 | 55.52925 | 1991 ft | 194 kts | 322° |
| 2026-04-23 14:33 | 25.17202 | 55.51982 | 1990 ft | 195 kts | 313° |
| 2026-04-23 14:33 | 25.17813 | 55.50658 | 2009 ft | 195 kts | 291° |
| 2026-04-23 14:33 | 25.18314 | 55.49265 | 1946 ft | 195 kts | 297° |
| 2026-04-23 14:33 | 25.18920 | 55.47988 | 1736 ft | 176 kts | 303° |
| 2026-04-23 14:34 | 25.19506 | 55.46878 | 1499 ft | 159 kts | 305° |
| 2026-04-23 14:34 | 25.20061 | 55.45877 | 1177 ft | 149 kts | 305° |
| 2026-04-23 14:34 | 25.20593 | 55.44918 | 1105 ft | 148 kts | 303° |
| 2026-04-23 14:34 | 25.21121 | 55.43950 | 938 ft | 145 kts | 304° |
| 2026-04-23 14:35 | 25.21648 | 55.42991 | 774 ft | 147 kts | 304° |
| 2026-04-23 14:35 | 25.22184 | 55.42026 | 611 ft | 148 kts | 304° |
| 2026-04-23 14:35 | 25.22728 | 55.41042 | 403 ft | 152 kts | 305° |
| 2026-04-23 14:35 | 25.23277 | 55.40051 | 203 ft | 149 kts | 304° |
| 2026-04-23 14:36 | 25.23801 | 55.39101 | 30 ft | 136 kts | 304° |
| 2026-04-23 14:36 | 25.24191 | 55.38402 | 28 ft | 77 kts | 301° |
| 2026-04-23 14:36 | 25.24467 | 55.37907 | 27 ft | 73 kts | 301° |
| 2026-04-23 14:36 | 25.24716 | 55.37449 | 29 ft | 67 kts | 298° |
| 2026-04-23 14:37 | 25.24785 | 55.37043 | 25 ft | 29 kts | 275° |
| 2026-04-23 14:37 | 25.24787 | 55.37020 | 24 ft | 0 kts | 272° |
| 2026-04-23 14:37 | 25.24787 | 55.37017 | 24 ft | 1 kts | 272° |
| 2026-04-23 14:37 | 25.24788 | 55.37003 | 26 ft | 2 kts | 279° |
| 2026-04-23 14:38 | 25.24819 | 55.36915 | 24 ft | 19 kts | 298° |
| 2026-04-23 14:38 | 25.24867 | 55.36761 | 27 ft | 26 kts | 284° |